Palmer Park, Maryland
Current Conditions -  °F | °C
As of 3:45 PM on Tuesday 21 Oct 2014 (Local Time) from KCGS Reporting Station
Broken Clouds Broken Clouds  
Wind Chill: 66°   Ceiling: 12000
Heat Index: 66°   Visibility: 10mi
Dew Point: 46°   Wind: 3mph
Humidity: 49%   Direction: 330°NNW
Pressure: 29.8"   Gusts: NA
Location:  38.9183°N, 76.8721°W
Report Text: KCGS 211945Z AUTO 33003KT 10SM SCT060 SCT070 BKN120 19/08 A2980 RMK AO1
Loading
Personal Weather Stations






























Interactive Weather Map New forecast layout! Learn more

10-Day Weather Forecast

Advertisements
Track Severe Weather on mobile